sensor_id;sensor_type;location;lat;lon;timestamp;temperature;humidity
33717;DHT22;20046;50.746;7.072;2022-12-17T00:01:45;-1.20;99.90
33717;DHT22;20046;50.746;7.072;2022-12-17T00:04:29;-1.20;99.90
33717;DHT22;20046;50.746;7.072;2022-12-17T00:07:13;-1.10;99.90
33717;DHT22;20046;50.746;7.072;2022-12-17T00:09:57;-1.10;99.90
33717;DHT22;20046;50.746;7.072;2022-12-17T00:12:41;-1.20;99.90
33717;DHT22;20046;50.746;7.072;2022-12-17T00:15:25;-1.10;99.90
33717;DHT22;20046;50.746;7.072;2022-12-17T00:18:09;-1.10;99.90
33717;DHT22;20046;50.746;7.072;2022-12-17T00:20:58;-1.20;99.90
33717;DHT22;20046;50.746;7.072;2022-12-17T00:23:43;-1.10;99.90
33717;DHT22;20046;50.746;7.072;2022-12-17T00:26:28;-1.10;99.90
33717;DHT22;20046;50.746;7.072;2022-12-17T00:29:12;-1.10;99.90
33717;DHT22;20046;50.746;7.072;2022-12-17T00:31:56;-1.10;99.90
33717;DHT22;20046;50.746;7.072;2022-12-17T00:34:40;-1.20;99.90
33717;DHT22;20046;50.746;7.072;2022-12-17T00:37:24;-1.10;99.90
33717;DHT22;20046;50.746;7.072;2022-12-17T00:40:09;-1.10;99.90
33717;DHT22;20046;50.746;7.072;2022-12-17T00:43:10;-1.20;99.90
33717;DHT22;20046;50.746;7.072;2022-12-17T00:45:55;-1.20;99.90
33717;DHT22;20046;50.746;7.072;2022-12-17T00:48:39;-1.20;99.90
33717;DHT22;20046;50.746;7.072;2022-12-17T00:51:24;-1.20;99.90
33717;DHT22;20046;50.746;7.072;2022-12-17T00:54:09;-1.20;99.90
33717;DHT22;20046;50.746;7.072;2022-12-17T00:56:53;-1.20;99.90
33717;DHT22;20046;50.746;7.072;2022-12-17T00:59:37;-1.20;99.90
33717;DHT22;20046;50.746;7.072;2022-12-17T01:02:21;-1.20;99.90
33717;DHT22;20046;50.746;7.072;2022-12-17T01:05:06;-1.20;99.90
33717;DHT22;20046;50.746;7.072;2022-12-17T01:07:50;-1.20;99.90
33717;DHT22;20046;50.746;7.072;2022-12-17T01:10:34;-1.30;99.90
33717;DHT22;20046;50.746;7.072;2022-12-17T01:13:19;-1.30;99.90
33717;DHT22;20046;50.746;7.072;2022-12-17T01:16:11;-1.30;99.90
33717;DHT22;20046;50.746;7.072;2022-12-17T01:18:56;-1.30;99.90
33717;DHT22;20046;50.746;7.072;2022-12-17T01:21:41;-1.30;99.90
33717;DHT22;20046;50.746;7.072;2022-12-17T01:24:25;-1.30;99.90
33717;DHT22;20046;50.746;7.072;2022-12-17T01:27:10;-1.30;99.90
33717;DHT22;20046;50.746;7.072;2022-12-17T01:29:54;-1.30;99.90
33717;DHT22;20046;50.746;7.072;2022-12-17T01:32:38;-1.30;99.90
33717;DHT22;20046;50.746;7.072;2022-12-17T01:35:23;-1.30;99.90
33717;DHT22;20046;50.746;7.072;2022-12-17T01:38:15;-1.30;99.90
33717;DHT22;20046;50.746;7.072;2022-12-17T01:41:00;-1.30;99.90
33717;DHT22;20046;50.746;7.072;2022-12-17T01:43:45;-1.30;99.90
33717;DHT22;20046;50.746;7.072;2022-12-17T01:46:33;-1.30;99.90
33717;DHT22;20046;50.746;7.072;2022-12-17T01:49:20;-1.30;99.90
33717;DHT22;20046;50.746;7.072;2022-12-17T01:52:05;-1.30;99.90
33717;DHT22;20046;50.746;7.072;2022-12-17T01:54:50;-1.30;99.90
33717;DHT22;20046;50.746;7.072;2022-12-17T01:57:35;-1.30;99.90
33717;DHT22;20046;50.746;7.072;2022-12-17T02:00:19;-1.30;99.90
33717;DHT22;20046;50.746;7.072;2022-12-17T02:03:04;-1.30;99.90
33717;DHT22;20046;50.746;7.072;2022-12-17T02:12:15;-1.40;99.90
33717;DHT22;20046;50.746;7.072;2022-12-17T02:15:15;-1.40;99.90
33717;DHT22;20046;50.746;7.072;2022-12-17T02:18:06;-1.50;99.90
33717;DHT22;20046;50.746;7.072;2022-12-17T02:20:52;-1.50;99.90
33717;DHT22;20046;50.746;7.072;2022-12-17T02:26:53;-1.50;99.90
33717;DHT22;20046;50.746;7.072;2022-12-17T02:29:44;-1.60;99.90
33717;DHT22;20046;50.746;7.072;2022-12-17T02:32:29;-1.60;99.90
33717;DHT22;20046;50.746;7.072;2022-12-17T02:35:29;-1.60;99.90
33717;DHT22;20046;50.746;7.072;2022-12-17T02:38:23;-1.60;99.90
33717;DHT22;20046;50.746;7.072;2022-12-17T02:41:13;-1.60;99.90
33717;DHT22;20046;50.746;7.072;2022-12-17T02:43:58;-1.60;99.90
33717;DHT22;20046;50.746;7.072;2022-12-17T02:46:44;-1.60;99.90
33717;DHT22;20046;50.746;7.072;2022-12-17T02:49:29;-1.70;99.90
33717;DHT22;20046;50.746;7.072;2022-12-17T02:52:15;-1.70;99.90
33717;DHT22;20046;50.746;7.072;2022-12-17T02:55:01;-1.60;99.90
33717;DHT22;20046;50.746;7.072;2022-12-17T02:57:46;-1.60;99.90
33717;DHT22;20046;50.746;7.072;2022-12-17T03:00:30;-1.70;99.90
33717;DHT22;20046;50.746;7.072;2022-12-17T03:03:14;-1.70;99.90
33717;DHT22;20046;50.746;7.072;2022-12-17T03:05:58;-1.80;99.90
33717;DHT22;20046;50.746;7.072;2022-12-17T03:08:42;-1.80;99.90
33717;DHT22;20046;50.746;7.072;2022-12-17T03:11:29;-1.80;99.90
33717;DHT22;20046;50.746;7.072;2022-12-17T03:14:14;-1.80;99.90
33717;DHT22;20046;50.746;7.072;2022-12-17T03:16:58;-1.80;99.90
33717;DHT22;20046;50.746;7.072;2022-12-17T03:19:42;-1.90;99.90
33717;DHT22;20046;50.746;7.072;2022-12-17T03:22:28;-1.80;99.90
33717;DHT22;20046;50.746;7.072;2022-12-17T03:25:13;-1.90;99.90
33717;DHT22;20046;50.746;7.072;2022-12-17T03:28:05;-1.90;99.90
33717;DHT22;20046;50.746;7.072;2022-12-17T03:30:50;-1.90;99.90
33717;DHT22;20046;50.746;7.072;2022-12-17T03:33:34;-1.90;99.90
33717;DHT22;20046;50.746;7.072;2022-12-17T03:36:18;-1.90;99.90
33717;DHT22;20046;50.746;7.072;2022-12-17T03:39:03;-1.90;99.90
33717;DHT22;20046;50.746;7.072;2022-12-17T03:41:47;-1.90;99.90
33717;DHT22;20046;50.746;7.072;2022-12-17T03:44:31;-1.90;99.90
33717;DHT22;20046;50.746;7.072;2022-12-17T03:47:15;-1.90;99.90
33717;DHT22;20046;50.746;7.072;2022-12-17T03:49:59;-1.90;99.90
33717;DHT22;20046;50.746;7.072;2022-12-17T03:52:43;-2.00;99.90
33717;DHT22;20046;50.746;7.072;2022-12-17T03:55:27;-2.00;99.90
33717;DHT22;20046;50.746;7.072;2022-12-17T03:58:11;-2.00;99.90
33717;DHT22;20046;50.746;7.072;2022-12-17T04:00:55;-1.90;99.90
33717;DHT22;20046;50.746;7.072;2022-12-17T04:03:39;-1.90;99.90
33717;DHT22;20046;50.746;7.072;2022-12-17T04:06:23;-2.00;99.90
33717;DHT22;20046;50.746;7.072;2022-12-17T04:09:07;-2.00;99.90
33717;DHT22;20046;50.746;7.072;2022-12-17T04:11:51;-2.00;99.90
33717;DHT22;20046;50.746;7.072;2022-12-17T04:14:35;-2.00;99.90
33717;DHT22;20046;50.746;7.072;2022-12-17T04:17:19;-2.00;99.90
33717;DHT22;20046;50.746;7.072;2022-12-17T04:20:04;-2.00;99.90
33717;DHT22;20046;50.746;7.072;2022-12-17T04:22:48;-2.00;99.90
33717;DHT22;20046;50.746;7.072;2022-12-17T04:25:32;-2.00;99.90
33717;DHT22;20046;50.746;7.072;2022-12-17T04:28:16;-2.00;99.90
33717;DHT22;20046;50.746;7.072;2022-12-17T04:31:00;-1.90;99.90
33717;DHT22;20046;50.746;7.072;2022-12-17T04:33:44;-1.90;99.90
33717;DHT22;20046;50.746;7.072;2022-12-17T04:36:28;-1.90;99.90
33717;DHT22;20046;50.746;7.072;2022-12-17T04:39:12;-1.90;99.90
33717;DHT22;20046;50.746;7.072;2022-12-17T04:41:56;-1.90;99.90
33717;DHT22;20046;50.746;7.072;2022-12-17T04:44:40;-1.90;99.90
33717;DHT22;20046;50.746;7.072;2022-12-17T04:47:24;-2.00;99.90
33717;DHT22;20046;50.746;7.072;2022-12-17T04:50:08;-2.00;99.90
33717;DHT22;20046;50.746;7.072;2022-12-17T04:53:02;-2.10;99.90
33717;DHT22;20046;50.746;7.072;2022-12-17T04:55:47;-2.00;99.90
33717;DHT22;20046;50.746;7.072;2022-12-17T04:58:31;-2.10;99.90
33717;DHT22;20046;50.746;7.072;2022-12-17T05:01:16;-2.00;99.90
33717;DHT22;20046;50.746;7.072;2022-12-17T05:04:00;-2.10;99.90
33717;DHT22;20046;50.746;7.072;2022-12-17T05:06:44;-2.10;99.90
33717;DHT22;20046;50.746;7.072;2022-12-17T05:09:28;-2.10;99.90
33717;DHT22;20046;50.746;7.072;2022-12-17T05:12:12;-2.10;99.90
33717;DHT22;20046;50.746;7.072;2022-12-17T05:14:56;-2.10;99.90
33717;DHT22;20046;50.746;7.072;2022-12-17T05:17:41;-2.10;99.90
33717;DHT22;20046;50.746;7.072;2022-12-17T05:20:24;-2.10;99.90
33717;DHT22;20046;50.746;7.072;2022-12-17T05:23:09;-2.20;99.90
33717;DHT22;20046;50.746;7.072;2022-12-17T05:26:05;-2.20;99.90
33717;DHT22;20046;50.746;7.072;2022-12-17T05:28:49;-2.20;99.90
33717;DHT22;20046;50.746;7.072;2022-12-17T05:31:34;-2.20;99.90
33717;DHT22;20046;50.746;7.072;2022-12-17T05:34:18;-2.20;99.90
33717;DHT22;20046;50.746;7.072;2022-12-17T05:37:02;-2.30;99.90
33717;DHT22;20046;50.746;7.072;2022-12-17T05:39:46;-2.30;99.90
33717;DHT22;20046;50.746;7.072;2022-12-17T05:42:30;-2.40;99.90
33717;DHT22;20046;50.746;7.072;2022-12-17T05:45:14;-2.40;99.90
33717;DHT22;20046;50.746;7.072;2022-12-17T05:47:59;-2.40;99.90
33717;DHT22;20046;50.746;7.072;2022-12-17T05:50:48;-2.50;99.90
33717;DHT22;20046;50.746;7.072;2022-12-17T05:53:32;-2.50;99.90
33717;DHT22;20046;50.746;7.072;2022-12-17T05:56:17;-2.50;99.90
33717;DHT22;20046;50.746;7.072;2022-12-17T05:59:01;-2.60;99.90
33717;DHT22;20046;50.746;7.072;2022-12-17T06:01:44;-2.60;99.90
33717;DHT22;20046;50.746;7.072;2022-12-17T06:04:28;-2.60;99.90
33717;DHT22;20046;50.746;7.072;2022-12-17T06:07:13;-2.60;99.90
33717;DHT22;20046;50.746;7.072;2022-12-17T06:09:57;-2.70;99.90
33717;DHT22;20046;50.746;7.072;2022-12-17T06:12:41;-2.70;99.90
33717;DHT22;20046;50.746;7.072;2022-12-17T06:15:25;-2.70;99.90
33717;DHT22;20046;50.746;7.072;2022-12-17T06:18:09;-2.70;99.90
33717;DHT22;20046;50.746;7.072;2022-12-17T06:20:53;-2.70;99.90
33717;DHT22;20046;50.746;7.072;2022-12-17T06:23:37;-2.80;99.90
33717;DHT22;20046;50.746;7.072;2022-12-17T06:26:21;-2.80;99.90
33717;DHT22;20046;50.746;7.072;2022-12-17T06:29:05;-2.80;99.90
33717;DHT22;20046;50.746;7.072;2022-12-17T06:31:49;-2.90;99.90
33717;DHT22;20046;50.746;7.072;2022-12-17T06:34:33;-2.90;99.90
33717;DHT22;20046;50.746;7.072;2022-12-17T06:37:17;-2.80;99.90
33717;DHT22;20046;50.746;7.072;2022-12-17T06:40:01;-2.90;99.90
33717;DHT22;20046;50.746;7.072;2022-12-17T06:42:53;-2.90;99.90
33717;DHT22;20046;50.746;7.072;2022-12-17T06:45:37;-2.90;99.90
33717;DHT22;20046;50.746;7.072;2022-12-17T06:48:21;-2.90;99.90
33717;DHT22;20046;50.746;7.072;2022-12-17T06:51:05;-3.00;99.90
33717;DHT22;20046;50.746;7.072;2022-12-17T06:53:49;-3.00;99.90
33717;DHT22;20046;50.746;7.072;2022-12-17T06:56:33;-3.10;99.90
33717;DHT22;20046;50.746;7.072;2022-12-17T06:59:17;-3.10;99.90
33717;DHT22;20046;50.746;7.072;2022-12-17T07:02:01;-3.10;99.90
33717;DHT22;20046;50.746;7.072;2022-12-17T07:04:46;-3.10;99.90
33717;DHT22;20046;50.746;7.072;2022-12-17T07:07:30;-3.10;99.90
33717;DHT22;20046;50.746;7.072;2022-12-17T07:10:14;-3.20;99.90
33717;DHT22;20046;50.746;7.072;2022-12-17T07:13:05;-3.20;99.90
33717;DHT22;20046;50.746;7.072;2022-12-17T07:15:50;-3.20;99.90
33717;DHT22;20046;50.746;7.072;2022-12-17T07:18:35;-3.20;99.90
33717;DHT22;20046;50.746;7.072;2022-12-17T07:21:19;-3.30;99.90
33717;DHT22;20046;50.746;7.072;2022-12-17T07:24:03;-3.30;99.90
33717;DHT22;20046;50.746;7.072;2022-12-17T07:26:47;-3.40;99.90
33717;DHT22;20046;50.746;7.072;2022-12-17T07:29:31;-3.40;99.90
33717;DHT22;20046;50.746;7.072;2022-12-17T07:32:16;-3.50;99.90
33717;DHT22;20046;50.746;7.072;2022-12-17T07:35:00;-3.50;99.90
33717;DHT22;20046;50.746;7.072;2022-12-17T07:37:44;-3.60;99.90
33717;DHT22;20046;50.746;7.072;2022-12-17T07:40:28;-3.60;99.90
33717;DHT22;20046;50.746;7.072;2022-12-17T07:43:13;-3.70;99.90
33717;DHT22;20046;50.746;7.072;2022-12-17T07:45:59;-3.70;99.90
33717;DHT22;20046;50.746;7.072;2022-12-17T07:48:43;-3.60;99.90
33717;DHT22;20046;50.746;7.072;2022-12-17T07:51:27;-3.60;99.90
33717;DHT22;20046;50.746;7.072;2022-12-17T07:54:11;-3.60;99.90
33717;DHT22;20046;50.746;7.072;2022-12-17T07:56:55;-3.60;99.90
33717;DHT22;20046;50.746;7.072;2022-12-17T07:59:39;-3.60;99.90
33717;DHT22;20046;50.746;7.072;2022-12-17T08:02:23;-3.70;99.90
33717;DHT22;20046;50.746;7.072;2022-12-17T08:05:07;-3.70;99.90
33717;DHT22;20046;50.746;7.072;2022-12-17T08:07:52;-3.60;99.90
33717;DHT22;20046;50.746;7.072;2022-12-17T08:10:37;-3.60;99.90
33717;DHT22;20046;50.746;7.072;2022-12-17T08:13:21;-3.70;99.90
33717;DHT22;20046;50.746;7.072;2022-12-17T08:16:05;-3.70;99.90
33717;DHT22;20046;50.746;7.072;2022-12-17T08:18:50;-3.60;99.90
33717;DHT22;20046;50.746;7.072;2022-12-17T08:21:34;-3.60;99.90
33717;DHT22;20046;50.746;7.072;2022-12-17T08:24:18;-3.60;99.90
33717;DHT22;20046;50.746;7.072;2022-12-17T08:27:02;-3.60;99.90
33717;DHT22;20046;50.746;7.072;2022-12-17T08:29:46;-3.70;99.90
33717;DHT22;20046;50.746;7.072;2022-12-17T08:32:30;-3.70;99.90
33717;DHT22;20046;50.746;7.072;2022-12-17T08:35:14;-3.70;99.90
33717;DHT22;20046;50.746;7.072;2022-12-17T08:38:05;-3.60;99.90
33717;DHT22;20046;50.746;7.072;2022-12-17T08:40:50;-3.70;99.90
33717;DHT22;20046;50.746;7.072;2022-12-17T08:43:34;-3.70;99.90
33717;DHT22;20046;50.746;7.072;2022-12-17T08:46:18;-3.70;99.90
33717;DHT22;20046;50.746;7.072;2022-12-17T08:49:02;-3.60;99.90
33717;DHT22;20046;50.746;7.072;2022-12-17T08:51:46;-3.50;99.90
33717;DHT22;20046;50.746;7.072;2022-12-17T08:54:30;-3.60;99.90
33717;DHT22;20046;50.746;7.072;2022-12-17T08:57:14;-3.60;99.90
33717;DHT22;20046;50.746;7.072;2022-12-17T08:59:58;-3.60;99.90
33717;DHT22;20046;50.746;7.072;2022-12-17T09:02:43;-3.50;99.90
33717;DHT22;20046;50.746;7.072;2022-12-17T09:05:27;-3.50;99.90
33717;DHT22;20046;50.746;7.072;2022-12-17T09:08:11;-3.50;99.90
33717;DHT22;20046;50.746;7.072;2022-12-17T09:10:58;-3.50;99.90
33717;DHT22;20046;50.746;7.072;2022-12-17T09:13:42;-3.50;99.90
33717;DHT22;20046;50.746;7.072;2022-12-17T09:16:26;-3.50;99.90
33717;DHT22;20046;50.746;7.072;2022-12-17T09:19:10;-3.40;99.90
33717;DHT22;20046;50.746;7.072;2022-12-17T09:21:54;-3.30;99.90
33717;DHT22;20046;50.746;7.072;2022-12-17T09:24:38;-3.30;99.90
33717;DHT22;20046;50.746;7.072;2022-12-17T09:27:22;-3.40;99.90
33717;DHT22;20046;50.746;7.072;2022-12-17T09:30:07;-3.30;99.90
33717;DHT22;20046;50.746;7.072;2022-12-17T09:32:51;-3.30;99.90
33717;DHT22;20046;50.746;7.072;2022-12-17T09:35:39;-3.30;99.90
33717;DHT22;20046;50.746;7.072;2022-12-17T09:38:23;-3.30;99.90
33717;DHT22;20046;50.746;7.072;2022-12-17T09:44:28;-3.10;99.90
33717;DHT22;20046;50.746;7.072;2022-12-17T09:50:21;-2.90;99.90
33717;DHT22;20046;50.746;7.072;2022-12-17T09:53:18;-2.90;99.90
33717;DHT22;20046;50.746;7.072;2022-12-17T09:56:03;-2.80;99.90
33717;DHT22;20046;50.746;7.072;2022-12-17T09:58:48;-2.90;99.90
33717;DHT22;20046;50.746;7.072;2022-12-17T10:01:34;-3.00;99.90
33717;DHT22;20046;50.746;7.072;2022-12-17T10:04:37;-3.10;99.90
33717;DHT22;20046;50.746;7.072;2022-12-17T10:07:24;-2.90;99.90
33717;DHT22;20046;50.746;7.072;2022-12-17T10:13:00;-2.60;99.90
33717;DHT22;20046;50.746;7.072;2022-12-17T10:15:45;-2.40;99.90
33717;DHT22;20046;50.746;7.072;2022-12-17T10:18:30;-2.20;99.90
33717;DHT22;20046;50.746;7.072;2022-12-17T10:21:17;-2.00;99.90
33717;DHT22;20046;50.746;7.072;2022-12-17T10:24:07;-2.40;99.90
33717;DHT22;20046;50.746;7.072;2022-12-17T10:26:51;-2.50;99.90
33717;DHT22;20046;50.746;7.072;2022-12-17T10:29:36;-2.60;99.90
33717;DHT22;20046;50.746;7.072;2022-12-17T10:32:23;-2.50;99.90
33717;DHT22;20046;50.746;7.072;2022-12-17T10:35:16;-2.10;99.90
33717;DHT22;20046;50.746;7.072;2022-12-17T10:38:10;-1.40;99.90
33717;DHT22;20046;50.746;7.072;2022-12-17T10:40:55;-1.50;99.90
33717;DHT22;20046;50.746;7.072;2022-12-17T10:43:40;-1.50;99.90
33717;DHT22;20046;50.746;7.072;2022-12-17T10:46:29;-1.60;99.90
33717;DHT22;20046;50.746;7.072;2022-12-17T10:49:20;-1.40;99.90
33717;DHT22;20046;50.746;7.072;2022-12-17T10:52:29;-1.40;99.90
33717;DHT22;20046;50.746;7.072;2022-12-17T10:55:24;-1.60;99.90
33717;DHT22;20046;50.746;7.072;2022-12-17T10:58:33;-1.80;99.90
33717;DHT22;20046;50.746;7.072;2022-12-17T11:01:24;-2.00;99.90
33717;DHT22;20046;50.746;7.072;2022-12-17T11:04:28;-2.20;99.90
33717;DHT22;20046;50.746;7.072;2022-12-17T11:07:32;-2.10;99.90
33717;DHT22;20046;50.746;7.072;2022-12-17T11:10:21;-1.90;99.90
33717;DHT22;20046;50.746;7.072;2022-12-17T11:13:42;-1.90;99.90
33717;DHT22;20046;50.746;7.072;2022-12-17T11:16:47;-1.90;99.90
33717;DHT22;20046;50.746;7.072;2022-12-17T11:19:43;-1.50;99.90
33717;DHT22;20046;50.746;7.072;2022-12-17T11:22:49;-1.60;99.90
33717;DHT22;20046;50.746;7.072;2022-12-17T11:25:59;-1.10;99.90
33717;DHT22;20046;50.746;7.072;2022-12-17T11:28:44;-0.30;99.90
33717;DHT22;20046;50.746;7.072;2022-12-17T11:40:54;3.10;99.90
33717;DHT22;20046;50.746;7.072;2022-12-17T11:53:24;6.70;99.90
33717;DHT22;20046;50.746;7.072;2022-12-17T11:56:31;7.40;99.80
33717;DHT22;20046;50.746;7.072;2022-12-17T11:59:31;8.70;96.90
33717;DHT22;20046;50.746;7.072;2022-12-17T12:05:36;8.10;94.10
33717;DHT22;20046;50.746;7.072;2022-12-17T12:08:27;8.70;93.50
33717;DHT22;20046;50.746;7.072;2022-12-17T12:17:03;8.00;93.40
33717;DHT22;20046;50.746;7.072;2022-12-17T12:19:57;7.70;92.50
33717;DHT22;20046;50.746;7.072;2022-12-17T12:34:23;8.00;93.40
33717;DHT22;20046;50.746;7.072;2022-12-17T12:37:14;8.70;92.20
33717;DHT22;20046;50.746;7.072;2022-12-17T12:43:21;8.70;91.70
33717;DHT22;20046;50.746;7.072;2022-12-17T12:46:08;9.00;91.40
33717;DHT22;20046;50.746;7.072;2022-12-17T12:49:15;9.00;90.90
33717;DHT22;20046;50.746;7.072;2022-12-17T12:52:01;8.80;90.00
33717;DHT22;20046;50.746;7.072;2022-12-17T12:54:57;9.10;90.20
33717;DHT22;20046;50.746;7.072;2022-12-17T13:11:56;5.90;92.40
33717;DHT22;20046;50.746;7.072;2022-12-17T13:24:49;3.90;96.10
33717;DHT22;20046;50.746;7.072;2022-12-17T13:30:20;5.40;95.80
33717;DHT22;20046;50.746;7.072;2022-12-17T13:33:22;5.70;95.00
33717;DHT22;20046;50.746;7.072;2022-12-17T13:41:38;3.80;96.60
33717;DHT22;20046;50.746;7.072;2022-12-17T13:44:17;2.90;97.80
33717;DHT22;20046;50.746;7.072;2022-12-17T13:46:46;2.10;99.20
33717;DHT22;20046;50.746;7.072;2022-12-17T13:49:21;1.30;99.90
33717;DHT22;20046;50.746;7.072;2022-12-17T13:51:47;0.80;99.90
33717;DHT22;20046;50.746;7.072;2022-12-17T13:54:17;0.60;99.90
33717;DHT22;20046;50.746;7.072;2022-12-17T13:56:44;0.40;99.90
33717;DHT22;20046;50.746;7.072;2022-12-17T13:59:21;0.20;99.90
33717;DHT22;20046;50.746;7.072;2022-12-17T14:01:51;0.20;99.90
33717;DHT22;20046;50.746;7.072;2022-12-17T14:04:27;0.10;99.90
33717;DHT22;20046;50.746;7.072;2022-12-17T14:06:56;0.10;99.90
33717;DHT22;20046;50.746;7.072;2022-12-17T14:09:29;0.50;99.90
33717;DHT22;20046;50.746;7.072;2022-12-17T14:11:56;0.70;99.90
33717;DHT22;20046;50.746;7.072;2022-12-17T14:14:43;0.50;99.90
33717;DHT22;20046;50.746;7.072;2022-12-17T14:17:20;0.50;99.90
33717;DHT22;20046;50.746;7.072;2022-12-17T14:19:49;1.00;99.90
33717;DHT22;20046;50.746;7.072;2022-12-17T14:22:34;1.10;99.90
33717;DHT22;20046;50.746;7.072;2022-12-17T14:25:01;0.90;99.90
33717;DHT22;20046;50.746;7.072;2022-12-17T14:27:33;0.80;99.90
33717;DHT22;20046;50.746;7.072;2022-12-17T14:29:59;0.50;99.90
33717;DHT22;20046;50.746;7.072;2022-12-17T14:32:33;0.30;99.90
33717;DHT22;20046;50.746;7.072;2022-12-17T14:34:59;0.20;99.90
33717;DHT22;20046;50.746;7.072;2022-12-17T14:37:25;-0.30;99.90
33717;DHT22;20046;50.746;7.072;2022-12-17T14:39:55;-0.40;99.90
33717;DHT22;20046;50.746;7.072;2022-12-17T14:42:24;-0.50;99.90
33717;DHT22;20046;50.746;7.072;2022-12-17T14:47:23;-0.80;99.90
33717;DHT22;20046;50.746;7.072;2022-12-17T14:52:43;-0.60;99.90
33717;DHT22;20046;50.746;7.072;2022-12-17T14:55:37;-0.70;99.90
33717;DHT22;20046;50.746;7.072;2022-12-17T14:58:14;-0.80;99.90
33717;DHT22;20046;50.746;7.072;2022-12-17T15:00:54;-1.00;99.90
33717;DHT22;20046;50.746;7.072;2022-12-17T15:03:27;-1.00;99.90
33717;DHT22;20046;50.746;7.072;2022-12-17T15:06:05;-0.80;99.90
33717;DHT22;20046;50.746;7.072;2022-12-17T15:08:33;-0.70;99.90
33717;DHT22;20046;50.746;7.072;2022-12-17T15:10:59;-0.60;99.90
33717;DHT22;20046;50.746;7.072;2022-12-17T15:13:25;-0.60;99.90
33717;DHT22;20046;50.746;7.072;2022-12-17T15:15:51;-0.80;99.90
33717;DHT22;20046;50.746;7.072;2022-12-17T15:18:17;-1.10;99.90
33717;DHT22;20046;50.746;7.072;2022-12-17T15:20:42;-1.30;99.90
33717;DHT22;20046;50.746;7.072;2022-12-17T15:23:16;-1.50;99.90
33717;DHT22;20046;50.746;7.072;2022-12-17T15:25:43;-1.60;99.90
33717;DHT22;20046;50.746;7.072;2022-12-17T15:28:09;-1.80;99.90
33717;DHT22;20046;50.746;7.072;2022-12-17T15:30:35;-1.90;99.90
33717;DHT22;20046;50.746;7.072;2022-12-17T15:33:01;-2.00;99.90
33717;DHT22;20046;50.746;7.072;2022-12-17T15:35:28;-2.20;99.90
33717;DHT22;20046;50.746;7.072;2022-12-17T15:37:53;-2.20;99.90
33717;DHT22;20046;50.746;7.072;2022-12-17T15:40:19;-2.20;99.90
33717;DHT22;20046;50.746;7.072;2022-12-17T15:42:45;-2.20;99.90
33717;DHT22;20046;50.746;7.072;2022-12-17T15:45:30;-2.20;99.90
33717;DHT22;20046;50.746;7.072;2022-12-17T15:47:56;-2.20;99.90
33717;DHT22;20046;50.746;7.072;2022-12-17T15:50:21;-2.30;99.90
33717;DHT22;20046;50.746;7.072;2022-12-17T15:52:47;-2.30;99.90
33717;DHT22;20046;50.746;7.072;2022-12-17T15:55:13;-2.30;99.90
33717;DHT22;20046;50.746;7.072;2022-12-17T15:57:38;-2.40;99.90
33717;DHT22;20046;50.746;7.072;2022-12-17T16:00:05;-2.50;99.90
33717;DHT22;20046;50.746;7.072;2022-12-17T16:02:30;-2.50;99.90
33717;DHT22;20046;50.746;7.072;2022-12-17T16:04:56;-2.60;99.90
33717;DHT22;20046;50.746;7.072;2022-12-17T16:07:22;-2.70;99.90
33717;DHT22;20046;50.746;7.072;2022-12-17T16:09:47;-2.70;99.90
33717;DHT22;20046;50.746;7.072;2022-12-17T16:12:13;-2.70;99.90
33717;DHT22;20046;50.746;7.072;2022-12-17T16:14:39;-2.80;99.90
33717;DHT22;20046;50.746;7.072;2022-12-17T16:17:04;-2.80;99.90
33717;DHT22;20046;50.746;7.072;2022-12-17T16:19:30;-2.80;99.90
33717;DHT22;20046;50.746;7.072;2022-12-17T16:21:56;-2.80;99.90
33717;DHT22;20046;50.746;7.072;2022-12-17T16:24:21;-2.90;99.90
33717;DHT22;20046;50.746;7.072;2022-12-17T16:26:47;-2.90;99.90
33717;DHT22;20046;50.746;7.072;2022-12-17T16:29:13;-2.90;99.90
33717;DHT22;20046;50.746;7.072;2022-12-17T16:31:38;-2.90;99.90
33717;DHT22;20046;50.746;7.072;2022-12-17T16:34:11;-3.00;99.90
33717;DHT22;20046;50.746;7.072;2022-12-17T16:36:37;-3.10;99.90
33717;DHT22;20046;50.746;7.072;2022-12-17T16:39:04;-3.10;99.90
33717;DHT22;20046;50.746;7.072;2022-12-17T16:41:30;-3.10;99.90
33717;DHT22;20046;50.746;7.072;2022-12-17T16:43:56;-3.10;99.90
33717;DHT22;20046;50.746;7.072;2022-12-17T16:46:35;-3.10;99.90
33717;DHT22;20046;50.746;7.072;2022-12-17T16:49:13;-3.20;99.90
33717;DHT22;20046;50.746;7.072;2022-12-17T16:51:40;-3.30;99.90
33717;DHT22;20046;50.746;7.072;2022-12-17T16:54:07;-3.30;99.90
33717;DHT22;20046;50.746;7.072;2022-12-17T16:56:33;-3.30;99.90
33717;DHT22;20046;50.746;7.072;2022-12-17T16:59:02;-3.30;99.90
33717;DHT22;20046;50.746;7.072;2022-12-17T17:01:28;-3.30;99.90
33717;DHT22;20046;50.746;7.072;2022-12-17T17:03:54;-3.30;99.90
33717;DHT22;20046;50.746;7.072;2022-12-17T17:06:20;-3.30;99.90
33717;DHT22;20046;50.746;7.072;2022-12-17T17:08:46;-3.40;99.90
33717;DHT22;20046;50.746;7.072;2022-12-17T17:11:15;-3.50;99.90
33717;DHT22;20046;50.746;7.072;2022-12-17T17:13:42;-3.50;99.90
33717;DHT22;20046;50.746;7.072;2022-12-17T17:16:08;-3.50;99.90
33717;DHT22;20046;50.746;7.072;2022-12-17T17:18:35;-3.50;99.90
33717;DHT22;20046;50.746;7.072;2022-12-17T17:21:23;-3.50;99.90
33717;DHT22;20046;50.746;7.072;2022-12-17T17:23:56;-3.60;99.90
33717;DHT22;20046;50.746;7.072;2022-12-17T17:26:23;-3.60;99.90
33717;DHT22;20046;50.746;7.072;2022-12-17T17:28:49;-3.50;99.90
33717;DHT22;20046;50.746;7.072;2022-12-17T17:31:15;-3.50;99.90
33717;DHT22;20046;50.746;7.072;2022-12-17T17:33:44;-3.50;99.90
33717;DHT22;20046;50.746;7.072;2022-12-17T17:38:44;-3.50;99.90
33717;DHT22;20046;50.746;7.072;2022-12-17T17:41:11;-3.50;99.90
33717;DHT22;20046;50.746;7.072;2022-12-17T17:43:38;-3.50;99.90
33717;DHT22;20046;50.746;7.072;2022-12-17T17:46:17;-3.50;99.90
33717;DHT22;20046;50.746;7.072;2022-12-17T17:48:44;-3.50;99.90
33717;DHT22;20046;50.746;7.072;2022-12-17T17:51:13;-3.50;99.90
33717;DHT22;20046;50.746;7.072;2022-12-17T17:53:48;-3.60;99.90
33717;DHT22;20046;50.746;7.072;2022-12-17T17:56:17;-3.60;99.90
33717;DHT22;20046;50.746;7.072;2022-12-17T17:58:47;-3.60;99.90
33717;DHT22;20046;50.746;7.072;2022-12-17T18:01:16;-3.60;99.90
33717;DHT22;20046;50.746;7.072;2022-12-17T18:03:42;-3.60;99.90
33717;DHT22;20046;50.746;7.072;2022-12-17T18:06:09;-3.60;99.90
33717;DHT22;20046;50.746;7.072;2022-12-17T18:08:36;-3.60;99.90
33717;DHT22;20046;50.746;7.072;2022-12-17T18:11:03;-3.50;99.90
33717;DHT22;20046;50.746;7.072;2022-12-17T18:13:30;-3.50;99.90
33717;DHT22;20046;50.746;7.072;2022-12-17T18:16:15;-3.60;99.90
33717;DHT22;20046;50.746;7.072;2022-12-17T18:18:41;-3.60;99.90
33717;DHT22;20046;50.746;7.072;2022-12-17T18:21:17;-3.70;99.90
33717;DHT22;20046;50.746;7.072;2022-12-17T18:23:43;-3.60;99.90
33717;DHT22;20046;50.746;7.072;2022-12-17T18:28:38;-3.60;99.90
33717;DHT22;20046;50.746;7.072;2022-12-17T18:31:15;-3.60;99.90
33717;DHT22;20046;50.746;7.072;2022-12-17T18:33:44;-3.70;99.90
33717;DHT22;20046;50.746;7.072;2022-12-17T18:36:22;-3.60;99.90
33717;DHT22;20046;50.746;7.072;2022-12-17T18:38:55;-3.70;99.90
33717;DHT22;20046;50.746;7.072;2022-12-17T18:41:21;-3.70;99.90
33717;DHT22;20046;50.746;7.072;2022-12-17T18:44:05;-3.70;99.90
33717;DHT22;20046;50.746;7.072;2022-12-17T18:46:32;-3.70;99.90